Latest Coastal Weather Observations for Portland Harbour

IDS60701

Issued at 4:11 pm CST Saturday 27 August 2016 (issued every 10 minutes, with the page automatically refreshed every 10 minutes)

About coastal observations | Map of coastal stations | Coastal observations for SA | Marine services | Other Formats
Station Details ID: 090192 Name: PORTLAND NTC AWS Lat: -38.34 Lon: 141.61 Height: 0.0 m
Data from the previous 72 hours. | See also: Recent months for locations in South Australia
Date/Time
CST
Temp
°C
Wind Pressure Rain since
9am
mm
Weather Cloud Vis
km
Sea
Height
m
Swell
Dir  Spd
kts
Gust
kts
hPa Trend Height
m
Period
s
Dir
27/04:00pm 13.8 NNW 13 20 1015.8 - - - - - - - - -
27/03:30pm 13.9 NW 15 25 1016.0 - - - - - - - - -
27/03:00pm 13.9 NW 13 22 1016.1 - - - - - - - - -
27/02:42pm 13.6 NW 15 25 1016.2 - - - - - - - - -
27/02:30pm 13.4 NW 13 20 1016.5 - - - - - - - - -
27/02:00pm 13.2 NW 14 24 1016.6 - - - - - - - - -
27/01:30pm 13.1 NNW 16 23 1016.7 - - - - - - - - -
27/01:00pm 12.9 NNW 17 26 1017.6 - - - - - - - - -
27/12:52pm 13.0 NW 15 26 1017.8 - - - - - - - - -
27/12:30pm 13.0 NNW 19 26 1017.9 - - - - - - - - -
27/12:00pm 13.2 NW 16 24 1017.9 - - - - - - - - -
27/11:31am 12.9 NW 16 26 1018.3 - - - - - - - - -
27/11:30am 12.9 NW 17 26 1018.3 - - - - - - - - -
27/11:01am 12.3 NW 16 26 1018.6 - - - - - - - - -
27/11:00am 12.3 NW 17 26 1018.6 - - - - - - - - -
27/10:54am 12.4 NNW 15 26 1018.6 - - - - - - - - -
27/10:30am 12.2 NW 17 23 1018.7 - - - - - - - - -
27/10:00am 11.9 NNW 14 20 1018.8 - - - - - - - - -
27/09:30am 11.2 NNW 15 23 1019.4 - - - - - - - - -
27/09:00am 10.9 NNW 14 19 1019.7 - - - - - - - - -
27/08:30am 10.6 NW 10 16 1020.0 - - - - - - - - -
27/08:00am 10.4 NNW 8 13 1019.8 - - - - - - - - -
27/07:30am 9.9 NNW 8 11 1019.6 - - - - - - - - -
27/07:00am 9.1 NNW 10 13 1019.5 - - - - - - - - -
27/06:30am 9.0 NNW 9 11 1019.4 - - - - - - - - -
27/06:00am 8.9 NNW 7 9 1019.2 - - - - - - - - -
27/05:30am 9.3 NNW 9 11 1019.5 - - - - - - - - -
27/05:00am 9.5 NNW 8 11 1019.4 - - - - - - - - -
27/04:30am 9.5 NW 9 12 1019.6 - - - - - - - - -
27/04:00am 9.4 NW 9 12 1019.5 - - - - - - - - -
27/03:30am 9.1 NNW 8 11 1019.4 - - - - - - - - -
27/03:00am 8.6 NNW 8 12 1019.6 - - - - - - - - -
27/02:30am 8.8 NNW 9 11 1019.6 - - - - - - - - -
27/02:00am 9.0 NNW 9 12 1019.8 - - - - - - - - -
27/01:30am 9.1 NNW 13 16 1019.7 - - - - - - - - -
27/01:00am 9.3 NNW 10 14 1020.2 - - - - - - - - -
27/12:30am 9.4 NNW 11 14 1020.4 - - - - - - - - -
27/12:00am 9.7 NW 9 13 1020.5 - - - - - - - - -
 
Date/Time
CST
Temp
°C
Wind Pressure Rain since
9am
mm
Weather Cloud Vis
km
Sea
Height
m
Swell
Dir  Spd
kts
Gust
kts
hPa Trend Height
m
Period
s
Dir
26/11:30pm 9.8 NW 7 14 1020.8 - - - - - - - - -
26/11:00pm 9.5 NW 7 11 1020.8 - - - - - - - - -
26/10:30pm 9.7 NW 9 12 1021.0 - - - - - - - - -
26/10:00pm 9.8 NW 9 13 1021.1 - - - - - - - - -
26/09:30pm 9.9 NW 8 11 1021.2 - - - - - - - - -
26/09:00pm 9.9 NW 7 10 1021.2 - - - - - - - - -
26/08:30pm 9.9 NW 8 10 1021.2 - - - - - - - - -
26/08:00pm 9.7 NW 8 12 1021.4 - - - - - - - - -
26/07:30pm 9.9 NW 8 12 1021.2 - - - - - - - - -
26/07:00pm 10.1 NW 10 15 1021.0 - - - - - - - - -
26/06:30pm 10.4 WNW 8 11 1021.1 - - - - - - - - -
26/06:00pm 11.0 NW 7 9 1020.8 - - - - - - - - -
26/05:30pm 11.1 WNW 11 16 1020.5 - - - - - - - - -
26/05:00pm 11.1 WNW 9 13 1020.4 - - - - - - - - -
26/04:30pm 11.8 WNW 11 17 1020.3 - - - - - - - - -
26/04:00pm 11.7 WNW 8 12 1020.2 - - - - - - - - -
26/03:30pm 11.7 WNW 11 16 1020.1 - - - - - - - - -
26/03:00pm 11.7 WNW 11 16 1019.9 - - - - - - - - -
26/02:30pm 11.8 W 9 16 1019.9 - - - - - - - - -
26/02:00pm 11.5 W 15 24 1020.1 - - - - - - - - -
26/01:50pm 11.9 W 15 25 1020.0 - - - - - - - - -
26/01:30pm 12.5 W 14 20 1020.1 - - - - - - - - -
26/01:00pm 12.9 W 13 20 1020.4 - - - - - - - - -
26/12:30pm 12.7 W 13 19 1020.7 - - - - - - - - -
26/12:00pm 12.2 WNW 12 18 1021.0 - - - - - - - - -
26/11:30am 11.5 WNW 9 17 1021.4 - - - - - - - - -
26/11:00am 10.2 NW 8 11 1021.9 - - - - - - - - -
26/10:30am 9.8 WNW 10 15 1022.1 - - - - - - - - -
26/10:00am 11.3 NW 11 16 1021.8 - - - - - - - - -
26/09:30am 10.9 NW 9 14 1022.0 - - - - - - - - -
26/09:00am 10.0 NW 8 12 1022.0 - - - - - - - - -
26/08:30am 9.5 NW 8 12 1022.0 - - - - - - - - -
26/08:00am 9.2 NW 6 8 1021.9 - - - - - - - - -
26/07:30am 9.2 NW 6 8 1021.7 - - - - - - - - -
26/07:00am 9.5 NW 7 8 1021.3 - - - - - - - - -
26/06:30am 9.7 NW 3 5 1021.2 - - - - - - - - -
26/06:00am 9.2 NW 5 6 1021.1 - - - - - - - - -
26/05:30am 9.3 NW 5 7 1020.8 - - - - - - - - -
26/05:00am 9.3 WNW 4 5 1020.8 - - - - - - - - -
26/04:30am 8.9 WNW 5 6 1020.6 - - - - - - - - -
26/04:00am 8.6 WNW 5 6 1020.4 - - - - - - - - -
26/03:30am 8.7 W 4 5 1020.1 - - - - - - - - -
26/03:00am 9.7 W 5 6 1020.0 - - - - - - - - -
26/02:30am 9.6 W 5 6 1020.1 - - - - - - - - -
26/02:00am 9.2 W 6 7 1020.2 - - - - - - - - -
26/01:30am 9.0 WNW 5 6 1020.3 - - - - - - - - -
26/01:00am 8.8 WNW 5 6 1020.4 - - - - - - - - -
26/12:30am 7.8 W 5 7 1020.2 - - - - - - - - -
26/12:00am 7.9 WNW 6 7 1020.4 - - - - - - - - -
 
Date/Time
CST
Temp
°C
Wind Pressure Rain since
9am
mm
Weather Cloud Vis
km
Sea
Height
m
Swell
Dir  Spd
kts
Gust
kts
hPa Trend Height
m
Period
s
Dir
25/11:30pm 8.3 WNW 5 6 1020.4 - - - - - - - - -
25/11:00pm 8.3 WNW 4 5 1020.5 - - - - - - - - -
25/10:30pm 8.3 W 3 4 1020.5 - - - - - - - - -
25/10:00pm 8.8 W 3 4 1020.7 - - - - - - - - -
25/09:30pm 8.6 WSW 4 6 1020.7 - - - - - - - - -
25/09:00pm 8.9 WSW 4 5 1020.6 - - - - - - - - -
25/08:30pm 9.2 W 4 5 1020.4 - - - - - - - - -
25/08:00pm 10.2 SW 6 8 1020.3 - - - - - - - - -
25/07:30pm 10.0 WSW 5 7 1020.0 - - - - - - - - -
25/07:00pm 10.0 W 5 7 1019.8 - - - - - - - - -
25/06:30pm 9.9 WSW 5 8 1019.6 - - - - - - - - -
25/06:00pm 10.3 WSW 6 11 1019.2 - - - - - - - - -
25/05:30pm 10.7 SSW 6 8 1019.0 - - - - - - - - -
25/05:00pm 11.0 SW 7 11 1018.7 - - - - - - - - -
25/04:30pm 11.4 SW 11 15 1018.4 - - - - - - - - -
25/04:00pm 11.9 SSW 10 14 1018.1 - - - - - - - - -
25/03:30pm 11.0 SW 10 15 1018.1 - - - - - - - - -
25/03:00pm 11.2 WSW 11 15 1018.0 - - - - - - - - -
25/02:30pm 11.8 SSW 10 14 1017.8 - - - - - - - - -
25/02:00pm 11.9 S 11 15 1017.7 - - - - - - - - -
25/01:30pm 11.8 SSW 11 15 1017.6 - - - - - - - - -
25/01:00pm 12.3 SSW 9 13 1017.6 - - - - - - - - -
25/12:30pm 11.9 S 9 14 1017.8 - - - - - - - - -
25/12:00pm 11.7 SSW 13 17 1017.7 - - - - - - - - -
25/11:30am 10.8 SSW 13 17 1017.9 - - - - - - - - -
25/11:00am 11.7 SSW 11 16 1017.8 - - - - - - - - -
25/10:30am 11.3 SSW 13 16 1017.8 - - - - - - - - -
25/10:00am 11.1 SSW 9 15 1017.7 - - - - - - - - -
25/09:30am 11.0 S 14 21 1017.3 - - - - - - - - -
25/09:00am 11.2 SSW 11 15 1017.2 - - - - - - - - -
25/08:30am 10.7 SW 8 12 1017.1 - - - - - - - - -
25/08:00am 11.0 SSW 7 11 1016.9 - - - - - - - - -
25/07:30am 10.5 S 9 14 1016.7 - - - - - - - - -
25/07:00am 10.2 SSW 10 14 1016.2 - - - - - - - - -
25/06:30am 8.9 SW 5 7 1015.9 - - - - - - - - -
25/06:00am 9.6 SSW 9 11 1015.5 - - - - - - - - -
25/05:30am 9.7 SSW 10 14 1015.3 - - - - - - - - -
25/05:00am 9.5 SSW 7 11 1014.9 - - - - - - - - -
25/04:30am 9.3 SW 10 18 1014.8 - - - - - - - - -
25/04:00am 10.5 SW 10 15 1014.6 - - - - - - - - -
25/03:30am 10.6 SSW 10 14 1014.5 - - - - - - - - -
25/03:00am 10.2 SSW 7 11 1014.6 - - - - - - - - -
25/02:30am 10.1 SW 8 11 1014.7 - - - - - - - - -
25/02:00am 10.4 SSW 10 13 1014.8 - - - - - - - - -
25/01:30am 10.6 SSW 9 13 1014.9 - - - - - - - - -
25/01:00am 10.6 SSW 11 16 1014.9 - - - - - - - - -
25/12:30am 9.9 SW 7 10 1015.0 - - - - - - - - -
25/12:00am 9.9 SW 8 11 1015.2 - - - - - - - - -
 
Date/Time
CST
Temp
°C
Wind Pressure Rain since
9am
mm
Weather Cloud Vis
km
Sea
Height
m
Swell
Dir  Spd
kts
Gust
kts
hPa Trend Height
m
Period
s
Dir
24/11:30pm 9.0 W 8 11 1015.3 - - - - - - - - -
24/11:00pm 9.0 SW 9 13 1015.6 - - - - - - - - -
24/10:30pm 9.5 WSW 9 13 1015.6 - - - - - - - - -
24/10:00pm 10.1 WSW 5 7 1015.6 - - - - - - - - -
24/09:30pm 10.3 WSW 5 7 1015.9 - - - - - - - - -
24/09:00pm 10.3 SW 5 10 1016.1 - - - - - - - - -
24/08:30pm 10.1 SW 5 8 1016.2 - - - - - - - - -
24/08:00pm 10.0 SW 5 7 1016.1 - - - - - - - - -
24/07:30pm 9.9 SW 7 9 1016.2 - - - - - - - - -
24/07:00pm 9.8 SSW 4 7 1016.3 - - - - - - - - -
24/06:30pm 10.2 SSE 7 11 1016.1 - - - - - - - - -
24/06:00pm 10.4 SSE 9 14 1016.0 - - - - - - - - -
24/05:30pm 10.9 S 6 8 1015.8 - - - - - - - - -
24/05:00pm 10.5 S 4 5 1015.7 - - - - - - - - -
24/04:30pm 10.6 SSE 6 9 1015.6 - - - - - - - - -
24/04:00pm 11.4 S 10 14 1015.5 - - - - - - - - -

Other Formats:

Comma delimited format used in spreadsheet applications
http://www.bom.gov.au/fwo/IDS60701/IDS60701.95826.axf

JavaScript Object Notation format (JSON) in row-major order
http://www.bom.gov.au/fwo/IDS60701/IDS60701.95826.json